sensor_id;sensor_type;location;lat;lon;timestamp;P1;durP1;ratioP1;P2;durP2;ratioP2
5912;SDS011;2982;42.684;23.356;2022-07-23T00:00:08;6.78;;;5.97;;
5912;SDS011;2982;42.684;23.356;2022-07-23T00:02:34;8.43;;;5.68;;
5912;SDS011;2982;42.684;23.356;2022-07-23T00:04:59;7.95;;;6.13;;
5912;SDS011;2982;42.684;23.356;2022-07-23T00:07:25;9.90;;;5.28;;
5912;SDS011;2982;42.684;23.356;2022-07-23T00:09:50;6.07;;;5.45;;
5912;SDS011;2982;42.684;23.356;2022-07-23T00:12:15;8.73;;;5.10;;
5912;SDS011;2982;42.684;23.356;2022-07-23T00:14:41;6.60;;;5.53;;
5912;SDS011;2982;42.684;23.356;2022-07-23T00:17:06;11.02;;;8.32;;
5912;SDS011;2982;42.684;23.356;2022-07-23T00:19:31;8.68;;;6.82;;
5912;SDS011;2982;42.684;23.356;2022-07-23T00:21:57;7.40;;;6.53;;
5912;SDS011;2982;42.684;23.356;2022-07-23T00:24:22;7.28;;;6.53;;
5912;SDS011;2982;42.684;23.356;2022-07-23T00:26:47;11.48;;;6.47;;
5912;SDS011;2982;42.684;23.356;2022-07-23T00:29:13;6.55;;;5.95;;
5912;SDS011;2982;42.684;23.356;2022-07-23T00:31:38;6.13;;;5.70;;
5912;SDS011;2982;42.684;23.356;2022-07-23T00:34:03;7.85;;;6.75;;
5912;SDS011;2982;42.684;23.356;2022-07-23T00:36:29;7.47;;;5.95;;
5912;SDS011;2982;42.684;23.356;2022-07-23T00:38:54;9.55;;;5.90;;
5912;SDS011;2982;42.684;23.356;2022-07-23T00:41:19;6.32;;;5.45;;
5912;SDS011;2982;42.684;23.356;2022-07-23T00:43:45;5.60;;;5.03;;
5912;SDS011;2982;42.684;23.356;2022-07-23T00:46:10;5.60;;;5.15;;
5912;SDS011;2982;42.684;23.356;2022-07-23T00:48:36;5.25;;;4.80;;
5912;SDS011;2982;42.684;23.356;2022-07-23T00:51:01;6.60;;;4.00;;
5912;SDS011;2982;42.684;23.356;2022-07-23T00:53:26;5.07;;;4.63;;
5912;SDS011;2982;42.684;23.356;2022-07-23T00:55:52;7.57;;;4.57;;
5912;SDS011;2982;42.684;23.356;2022-07-23T00:58:18;5.80;;;5.25;;
5912;SDS011;2982;42.684;23.356;2022-07-23T01:00:43;6.65;;;4.88;;
5912;SDS011;2982;42.684;23.356;2022-07-23T01:03:09;6.50;;;5.22;;
5912;SDS011;2982;42.684;23.356;2022-07-23T01:05:34;6.60;;;4.90;;
5912;SDS011;2982;42.684;23.356;2022-07-23T01:08:00;5.63;;;5.13;;
5912;SDS011;2982;42.684;23.356;2022-07-23T01:10:25;6.07;;;5.05;;
5912;SDS011;2982;42.684;23.356;2022-07-23T01:12:51;6.50;;;5.15;;
5912;SDS011;2982;42.684;23.356;2022-07-23T01:15:16;5.88;;;5.30;;
5912;SDS011;2982;42.684;23.356;2022-07-23T01:17:42;7.55;;;5.47;;
5912;SDS011;2982;42.684;23.356;2022-07-23T01:20:07;7.45;;;5.32;;
5912;SDS011;2982;42.684;23.356;2022-07-23T01:22:33;5.95;;;5.45;;
5912;SDS011;2982;42.684;23.356;2022-07-23T01:24:58;8.75;;;5.20;;
5912;SDS011;2982;42.684;23.356;2022-07-23T01:27:23;5.97;;;4.90;;
5912;SDS011;2982;42.684;23.356;2022-07-23T01:29:49;7.03;;;6.43;;
5912;SDS011;2982;42.684;23.356;2022-07-23T01:32:14;6.75;;;6.05;;
5912;SDS011;2982;42.684;23.356;2022-07-23T01:34:39;7.43;;;6.75;;
5912;SDS011;2982;42.684;23.356;2022-07-23T01:37:05;8.18;;;6.75;;
5912;SDS011;2982;42.684;23.356;2022-07-23T01:39:30;9.10;;;6.20;;
5912;SDS011;2982;42.684;23.356;2022-07-23T01:41:55;6.30;;;5.70;;
5912;SDS011;2982;42.684;23.356;2022-07-23T01:44:21;5.53;;;5.13;;
5912;SDS011;2982;42.684;23.356;2022-07-23T01:46:46;5.82;;;5.15;;
5912;SDS011;2982;42.684;23.356;2022-07-23T01:49:11;8.43;;;5.70;;
5912;SDS011;2982;42.684;23.356;2022-07-23T01:51:37;6.05;;;5.35;;
5912;SDS011;2982;42.684;23.356;2022-07-23T01:54:02;5.85;;;5.28;;
5912;SDS011;2982;42.684;23.356;2022-07-23T01:56:27;5.53;;;5.03;;
5912;SDS011;2982;42.684;23.356;2022-07-23T01:58:53;7.35;;;5.15;;
5912;SDS011;2982;42.684;23.356;2022-07-23T02:01:18;5.93;;;5.50;;
5912;SDS011;2982;42.684;23.356;2022-07-23T02:03:43;5.45;;;4.82;;
5912;SDS011;2982;42.684;23.356;2022-07-23T02:06:08;5.10;;;4.63;;
5912;SDS011;2982;42.684;23.356;2022-07-23T02:08:34;7.05;;;5.90;;
5912;SDS011;2982;42.684;23.356;2022-07-23T02:10:59;6.22;;;5.60;;
5912;SDS011;2982;42.684;23.356;2022-07-23T02:13:24;6.22;;;5.65;;
5912;SDS011;2982;42.684;23.356;2022-07-23T02:15:49;5.20;;;4.65;;
5912;SDS011;2982;42.684;23.356;2022-07-23T02:18:15;8.40;;;5.90;;
5912;SDS011;2982;42.684;23.356;2022-07-23T02:20:40;6.00;;;5.38;;
5912;SDS011;2982;42.684;23.356;2022-07-23T02:23:06;5.53;;;5.00;;
5912;SDS011;2982;42.684;23.356;2022-07-23T02:25:32;8.23;;;4.82;;
5912;SDS011;2982;42.684;23.356;2022-07-23T02:27:58;7.82;;;4.75;;
5912;SDS011;2982;42.684;23.356;2022-07-23T02:30:23;6.80;;;4.60;;
5912;SDS011;2982;42.684;23.356;2022-07-23T02:32:48;5.38;;;4.88;;
5912;SDS011;2982;42.684;23.356;2022-07-23T02:35:14;5.35;;;4.85;;
5912;SDS011;2982;42.684;23.356;2022-07-23T02:37:39;6.70;;;4.65;;
5912;SDS011;2982;42.684;23.356;2022-07-23T02:40:04;9.10;;;4.95;;
5912;SDS011;2982;42.684;23.356;2022-07-23T02:42:30;6.15;;;4.55;;
5912;SDS011;2982;42.684;23.356;2022-07-23T02:44:56;5.78;;;5.28;;
5912;SDS011;2982;42.684;23.356;2022-07-23T02:47:21;5.72;;;5.18;;
5912;SDS011;2982;42.684;23.356;2022-07-23T02:49:46;6.30;;;5.70;;
5912;SDS011;2982;42.684;23.356;2022-07-23T02:52:11;7.15;;;4.93;;
5912;SDS011;2982;42.684;23.356;2022-07-23T02:54:37;6.00;;;5.40;;
5912;SDS011;2982;42.684;23.356;2022-07-23T02:57:03;5.60;;;4.57;;
5912;SDS011;2982;42.684;23.356;2022-07-23T02:59:29;11.68;;;5.82;;
5912;SDS011;2982;42.684;23.356;2022-07-23T03:01:54;11.65;;;5.57;;
5912;SDS011;2982;42.684;23.356;2022-07-23T03:04:19;5.75;;;5.20;;
5912;SDS011;2982;42.684;23.356;2022-07-23T03:06:44;7.75;;;5.53;;
5912;SDS011;2982;42.684;23.356;2022-07-23T03:09:10;6.88;;;6.28;;
5912;SDS011;2982;42.684;23.356;2022-07-23T03:11:35;6.65;;;5.88;;
5912;SDS011;2982;42.684;23.356;2022-07-23T03:14:00;6.32;;;5.72;;
5912;SDS011;2982;42.684;23.356;2022-07-23T03:16:26;9.05;;;5.78;;
5912;SDS011;2982;42.684;23.356;2022-07-23T03:18:51;6.93;;;5.47;;
5912;SDS011;2982;42.684;23.356;2022-07-23T03:21:16;9.25;;;6.32;;
5912;SDS011;2982;42.684;23.356;2022-07-23T03:23:42;9.63;;;6.85;;
5912;SDS011;2982;42.684;23.356;2022-07-23T03:26:07;6.95;;;6.30;;
5912;SDS011;2982;42.684;23.356;2022-07-23T03:28:32;7.20;;;6.53;;
5912;SDS011;2982;42.684;23.356;2022-07-23T03:30:58;8.45;;;6.90;;
5912;SDS011;2982;42.684;23.356;2022-07-23T03:33:23;11.07;;;7.38;;
5912;SDS011;2982;42.684;23.356;2022-07-23T03:35:49;12.68;;;7.40;;
5912;SDS011;2982;42.684;23.356;2022-07-23T03:38:14;8.10;;;7.30;;
5912;SDS011;2982;42.684;23.356;2022-07-23T03:40:40;9.00;;;7.50;;
5912;SDS011;2982;42.684;23.356;2022-07-23T03:43:05;8.63;;;7.80;;
5912;SDS011;2982;42.684;23.356;2022-07-23T03:45:31;14.23;;;9.52;;
5912;SDS011;2982;42.684;23.356;2022-07-23T03:47:57;12.65;;;8.68;;
5912;SDS011;2982;42.684;23.356;2022-07-23T03:50:22;11.13;;;8.27;;
5912;SDS011;2982;42.684;23.356;2022-07-23T03:52:47;13.80;;;8.75;;
5912;SDS011;2982;42.684;23.356;2022-07-23T03:55:13;12.45;;;8.88;;
5912;SDS011;2982;42.684;23.356;2022-07-23T03:57:38;9.85;;;8.30;;
5912;SDS011;2982;42.684;23.356;2022-07-23T04:00:04;14.32;;;8.57;;
5912;SDS011;2982;42.684;23.356;2022-07-23T04:02:31;16.98;;;8.40;;
5912;SDS011;2982;42.684;23.356;2022-07-23T04:04:56;9.68;;;8.25;;
5912;SDS011;2982;42.684;23.356;2022-07-23T04:07:22;8.85;;;7.82;;
5912;SDS011;2982;42.684;23.356;2022-07-23T04:09:47;12.27;;;7.53;;
5912;SDS011;2982;42.684;23.356;2022-07-23T04:12:12;9.27;;;8.40;;
5912;SDS011;2982;42.684;23.356;2022-07-23T04:14:38;12.35;;;8.50;;
5912;SDS011;2982;42.684;23.356;2022-07-23T04:17:03;18.45;;;8.50;;
5912;SDS011;2982;42.684;23.356;2022-07-23T04:19:29;8.77;;;7.88;;
5912;SDS011;2982;42.684;23.356;2022-07-23T04:21:54;9.98;;;7.82;;
5912;SDS011;2982;42.684;23.356;2022-07-23T04:24:19;12.20;;;8.10;;
5912;SDS011;2982;42.684;23.356;2022-07-23T04:26:45;11.13;;;7.80;;
5912;SDS011;2982;42.684;23.356;2022-07-23T04:29:10;12.40;;;7.93;;
5912;SDS011;2982;42.684;23.356;2022-07-23T04:31:36;7.90;;;7.15;;
5912;SDS011;2982;42.684;23.356;2022-07-23T04:34:01;7.97;;;7.05;;
5912;SDS011;2982;42.684;23.356;2022-07-23T04:36:26;8.73;;;6.35;;
5912;SDS011;2982;42.684;23.356;2022-07-23T04:38:52;12.27;;;7.68;;
5912;SDS011;2982;42.684;23.356;2022-07-23T04:41:18;8.02;;;6.80;;
5912;SDS011;2982;42.684;23.356;2022-07-23T04:43:43;7.60;;;5.90;;
5912;SDS011;2982;42.684;23.356;2022-07-23T04:46:08;6.25;;;5.65;;
5912;SDS011;2982;42.684;23.356;2022-07-23T04:48:33;9.85;;;5.20;;
5912;SDS011;2982;42.684;23.356;2022-07-23T04:50:59;8.48;;;5.53;;
5912;SDS011;2982;42.684;23.356;2022-07-23T04:53:24;7.95;;;5.35;;
5912;SDS011;2982;42.684;23.356;2022-07-23T04:55:50;7.03;;;5.25;;
5912;SDS011;2982;42.684;23.356;2022-07-23T04:58:16;7.53;;;6.07;;
5912;SDS011;2982;42.684;23.356;2022-07-23T05:00:41;10.15;;;6.25;;
5912;SDS011;2982;42.684;23.356;2022-07-23T05:03:06;5.68;;;5.18;;
5912;SDS011;2982;42.684;23.356;2022-07-23T05:05:32;7.45;;;6.70;;
5912;SDS011;2982;42.684;23.356;2022-07-23T05:07:57;6.05;;;5.53;;
5912;SDS011;2982;42.684;23.356;2022-07-23T05:10:22;8.52;;;6.68;;
5912;SDS011;2982;42.684;23.356;2022-07-23T05:12:48;7.28;;;6.03;;
5912;SDS011;2982;42.684;23.356;2022-07-23T05:15:13;6.20;;;5.72;;
5912;SDS011;2982;42.684;23.356;2022-07-23T05:17:38;9.85;;;6.50;;
5912;SDS011;2982;42.684;23.356;2022-07-23T05:20:04;7.13;;;6.18;;
5912;SDS011;2982;42.684;23.356;2022-07-23T05:22:29;7.05;;;6.22;;
5912;SDS011;2982;42.684;23.356;2022-07-23T05:24:55;10.70;;;7.00;;
5912;SDS011;2982;42.684;23.356;2022-07-23T05:27:20;13.23;;;6.38;;
5912;SDS011;2982;42.684;23.356;2022-07-23T05:29:45;7.68;;;5.57;;
5912;SDS011;2982;42.684;23.356;2022-07-23T05:32:10;10.45;;;6.50;;
5912;SDS011;2982;42.684;23.356;2022-07-23T05:34:36;7.82;;;5.80;;
5912;SDS011;2982;42.684;23.356;2022-07-23T05:37:01;12.73;;;6.45;;
5912;SDS011;2982;42.684;23.356;2022-07-23T05:39:26;11.00;;;6.90;;
5912;SDS011;2982;42.684;23.356;2022-07-23T05:41:51;7.15;;;6.43;;
5912;SDS011;2982;42.684;23.356;2022-07-23T05:44:17;10.80;;;6.30;;
5912;SDS011;2982;42.684;23.356;2022-07-23T05:46:42;15.25;;;6.60;;
5912;SDS011;2982;42.684;23.356;2022-07-23T05:49:10;8.88;;;6.05;;
5912;SDS011;2982;42.684;23.356;2022-07-23T05:51:35;11.18;;;6.30;;
5912;SDS011;2982;42.684;23.356;2022-07-23T05:54:01;10.07;;;5.78;;
5912;SDS011;2982;42.684;23.356;2022-07-23T05:56:26;10.90;;;6.60;;
5912;SDS011;2982;42.684;23.356;2022-07-23T05:58:51;8.23;;;6.80;;
5912;SDS011;2982;42.684;23.356;2022-07-23T06:01:17;12.68;;;6.43;;
5912;SDS011;2982;42.684;23.356;2022-07-23T06:03:42;6.50;;;5.85;;
5912;SDS011;2982;42.684;23.356;2022-07-23T06:06:07;16.30;;;7.90;;
5912;SDS011;2982;42.684;23.356;2022-07-23T06:08:32;8.40;;;6.05;;
5912;SDS011;2982;42.684;23.356;2022-07-23T06:10:58;8.77;;;5.93;;
5912;SDS011;2982;42.684;23.356;2022-07-23T06:13:26;8.90;;;6.30;;
5912;SDS011;2982;42.684;23.356;2022-07-23T06:15:51;6.65;;;6.03;;
5912;SDS011;2982;42.684;23.356;2022-07-23T06:18:17;10.65;;;5.68;;
5912;SDS011;2982;42.684;23.356;2022-07-23T06:20:42;8.80;;;6.38;;
5912;SDS011;2982;42.684;23.356;2022-07-23T06:23:07;7.65;;;6.25;;
5912;SDS011;2982;42.684;23.356;2022-07-23T06:25:33;9.50;;;6.35;;
5912;SDS011;2982;42.684;23.356;2022-07-23T06:27:58;13.82;;;6.53;;
5912;SDS011;2982;42.684;23.356;2022-07-23T06:30:23;8.73;;;5.95;;
5912;SDS011;2982;42.684;23.356;2022-07-23T06:32:49;8.75;;;6.45;;
5912;SDS011;2982;42.684;23.356;2022-07-23T06:35:14;7.47;;;6.45;;
5912;SDS011;2982;42.684;23.356;2022-07-23T06:37:41;11.43;;;6.53;;
5912;SDS011;2982;42.684;23.356;2022-07-23T06:40:06;6.05;;;5.53;;
5912;SDS011;2982;42.684;23.356;2022-07-23T06:42:32;11.70;;;6.78;;
5912;SDS011;2982;42.684;23.356;2022-07-23T06:44:57;10.30;;;6.60;;
5912;SDS011;2982;42.684;23.356;2022-07-23T06:47:23;10.00;;;6.20;;
5912;SDS011;2982;42.684;23.356;2022-07-23T06:49:48;6.50;;;5.97;;
5912;SDS011;2982;42.684;23.356;2022-07-23T06:52:13;11.63;;;6.18;;
5912;SDS011;2982;42.684;23.356;2022-07-23T06:54:39;6.57;;;5.95;;
5912;SDS011;2982;42.684;23.356;2022-07-23T06:57:04;12.15;;;6.90;;
5912;SDS011;2982;42.684;23.356;2022-07-23T06:59:30;7.50;;;5.97;;
5912;SDS011;2982;42.684;23.356;2022-07-23T07:01:55;9.07;;;6.03;;
5912;SDS011;2982;42.684;23.356;2022-07-23T07:04:20;16.88;;;6.72;;
5912;SDS011;2982;42.684;23.356;2022-07-23T07:06:46;7.90;;;6.13;;
5912;SDS011;2982;42.684;23.356;2022-07-23T07:09:11;8.90;;;6.50;;
5912;SDS011;2982;42.684;23.356;2022-07-23T07:11:36;7.00;;;6.38;;
5912;SDS011;2982;42.684;23.356;2022-07-23T07:14:01;8.07;;;6.13;;
5912;SDS011;2982;42.684;23.356;2022-07-23T07:16:27;7.53;;;5.85;;
5912;SDS011;2982;42.684;23.356;2022-07-23T07:18:52;7.70;;;6.05;;
5912;SDS011;2982;42.684;23.356;2022-07-23T07:21:17;15.55;;;7.20;;
5912;SDS011;2982;42.684;23.356;2022-07-23T07:23:43;9.32;;;6.50;;
5912;SDS011;2982;42.684;23.356;2022-07-23T07:26:08;9.20;;;5.70;;
5912;SDS011;2982;42.684;23.356;2022-07-23T07:28:33;5.90;;;5.40;;
5912;SDS011;2982;42.684;23.356;2022-07-23T07:30:59;9.10;;;5.57;;
5912;SDS011;2982;42.684;23.356;2022-07-23T07:33:24;12.43;;;6.72;;
5912;SDS011;2982;42.684;23.356;2022-07-23T07:35:49;6.40;;;5.90;;
5912;SDS011;2982;42.684;23.356;2022-07-23T07:38:15;8.70;;;6.63;;
5912;SDS011;2982;42.684;23.356;2022-07-23T07:40:40;9.75;;;6.32;;
5912;SDS011;2982;42.684;23.356;2022-07-23T07:43:05;10.57;;;5.93;;
5912;SDS011;2982;42.684;23.356;2022-07-23T07:45:31;11.10;;;6.32;;
5912;SDS011;2982;42.684;23.356;2022-07-23T07:47:56;13.20;;;6.18;;
5912;SDS011;2982;42.684;23.356;2022-07-23T07:50:22;10.32;;;6.25;;
5912;SDS011;2982;42.684;23.356;2022-07-23T07:52:47;8.25;;;5.93;;
5912;SDS011;2982;42.684;23.356;2022-07-23T07:55:13;6.53;;;5.90;;
5912;SDS011;2982;42.684;23.356;2022-07-23T07:57:38;10.60;;;6.65;;
5912;SDS011;2982;42.684;23.356;2022-07-23T08:00:05;12.43;;;6.90;;
5912;SDS011;2982;42.684;23.356;2022-07-23T08:02:45;16.35;;;6.57;;
5912;SDS011;2982;42.684;23.356;2022-07-23T08:05:18;11.45;;;5.28;;
5912;SDS011;2982;42.684;23.356;2022-07-23T08:07:44;9.20;;;6.95;;
5912;SDS011;2982;42.684;23.356;2022-07-23T08:10:09;8.10;;;6.82;;
5912;SDS011;2982;42.684;23.356;2022-07-23T08:12:42;10.50;;;6.53;;
5912;SDS011;2982;42.684;23.356;2022-07-23T08:15:12;8.25;;;7.00;;
5912;SDS011;2982;42.684;23.356;2022-07-23T08:17:38;7.72;;;6.88;;
5912;SDS011;2982;42.684;23.356;2022-07-23T08:20:04;10.57;;;7.20;;
5912;SDS011;2982;42.684;23.356;2022-07-23T08:22:44;7.63;;;6.53;;
5912;SDS011;2982;42.684;23.356;2022-07-23T08:25:14;13.65;;;7.07;;
5912;SDS011;2982;42.684;23.356;2022-07-23T08:27:40;6.95;;;6.35;;
5912;SDS011;2982;42.684;23.356;2022-07-23T08:30:05;13.15;;;5.75;;
5912;SDS011;2982;42.684;23.356;2022-07-23T08:32:31;7.88;;;6.65;;
5912;SDS011;2982;42.684;23.356;2022-07-23T08:34:56;11.13;;;6.65;;
5912;SDS011;2982;42.684;23.356;2022-07-23T08:37:22;12.43;;;7.35;;
5912;SDS011;2982;42.684;23.356;2022-07-23T08:39:47;8.85;;;5.88;;
5912;SDS011;2982;42.684;23.356;2022-07-23T08:42:15;9.80;;;6.07;;
5912;SDS011;2982;42.684;23.356;2022-07-23T08:44:41;12.05;;;6.38;;
5912;SDS011;2982;42.684;23.356;2022-07-23T08:47:10;12.05;;;6.53;;
5912;SDS011;2982;42.684;23.356;2022-07-23T08:49:36;9.90;;;5.60;;
5912;SDS011;2982;42.684;23.356;2022-07-23T08:52:03;7.68;;;5.70;;
5912;SDS011;2982;42.684;23.356;2022-07-23T08:54:29;13.13;;;7.03;;
5912;SDS011;2982;42.684;23.356;2022-07-23T08:56:55;8.55;;;6.75;;
5912;SDS011;2982;42.684;23.356;2022-07-23T08:59:20;13.25;;;7.18;;
5912;SDS011;2982;42.684;23.356;2022-07-23T09:01:45;12.07;;;6.63;;
5912;SDS011;2982;42.684;23.356;2022-07-23T09:04:11;10.38;;;6.70;;
5912;SDS011;2982;42.684;23.356;2022-07-23T09:06:38;10.18;;;6.28;;
5912;SDS011;2982;42.684;23.356;2022-07-23T09:09:16;13.73;;;6.57;;
5912;SDS011;2982;42.684;23.356;2022-07-23T09:11:48;8.45;;;6.53;;
5912;SDS011;2982;42.684;23.356;2022-07-23T09:14:45;6.75;;;6.18;;
5912;SDS011;2982;42.684;23.356;2022-07-23T09:17:15;11.68;;;6.10;;
5912;SDS011;2982;42.684;23.356;2022-07-23T09:19:41;11.73;;;6.38;;
5912;SDS011;2982;42.684;23.356;2022-07-23T09:22:20;9.75;;;5.78;;
5912;SDS011;2982;42.684;23.356;2022-07-23T09:25:04;6.63;;;6.05;;
5912;SDS011;2982;42.684;23.356;2022-07-23T09:27:47;14.23;;;6.78;;
5912;SDS011;2982;42.684;23.356;2022-07-23T09:30:15;12.93;;;6.57;;
5912;SDS011;2982;42.684;23.356;2022-07-23T09:32:40;9.00;;;5.60;;
5912;SDS011;2982;42.684;23.356;2022-07-23T09:35:07;7.45;;;6.13;;
5912;SDS011;2982;42.684;23.356;2022-07-23T09:37:32;6.40;;;5.63;;
5912;SDS011;2982;42.684;23.356;2022-07-23T09:40:07;9.63;;;5.65;;
5912;SDS011;2982;42.684;23.356;2022-07-23T09:42:34;10.60;;;5.30;;
5912;SDS011;2982;42.684;23.356;2022-07-23T09:45:00;7.55;;;6.32;;
5912;SDS011;2982;42.684;23.356;2022-07-23T09:47:27;8.90;;;5.65;;
5912;SDS011;2982;42.684;23.356;2022-07-23T09:49:58;10.55;;;5.50;;
5912;SDS011;2982;42.684;23.356;2022-07-23T09:52:28;19.17;;;6.00;;
5912;SDS011;2982;42.684;23.356;2022-07-23T09:55:01;5.97;;;5.38;;
5912;SDS011;2982;42.684;23.356;2022-07-23T09:57:30;10.98;;;6.47;;
5912;SDS011;2982;42.684;23.356;2022-07-23T09:59:58;6.05;;;5.38;;
5912;SDS011;2982;42.684;23.356;2022-07-23T10:02:25;17.15;;;6.00;;
5912;SDS011;2982;42.684;23.356;2022-07-23T10:04:53;12.32;;;5.15;;
5912;SDS011;2982;42.684;23.356;2022-07-23T10:07:19;7.50;;;5.32;;
5912;SDS011;2982;42.684;23.356;2022-07-23T10:09:46;8.93;;;5.55;;
5912;SDS011;2982;42.684;23.356;2022-07-23T10:12:13;6.70;;;5.93;;
5912;SDS011;2982;42.684;23.356;2022-07-23T10:14:39;6.22;;;5.35;;
5912;SDS011;2982;42.684;23.356;2022-07-23T10:17:05;5.90;;;5.30;;
5912;SDS011;2982;42.684;23.356;2022-07-23T10:19:31;8.52;;;5.35;;
5912;SDS011;2982;42.684;23.356;2022-07-23T10:22:01;7.63;;;4.55;;
5912;SDS011;2982;42.684;23.356;2022-07-23T10:32:28;4.90;;;4.10;;
5912;SDS011;2982;42.684;23.356;2022-07-23T10:38:10;6.95;;;4.93;;
5912;SDS011;2982;42.684;23.356;2022-07-23T10:41:08;5.88;;;4.72;;
5912;SDS011;2982;42.684;23.356;2022-07-23T10:43:33;10.90;;;5.32;;
5912;SDS011;2982;42.684;23.356;2022-07-23T10:49:20;7.18;;;5.28;;
5912;SDS011;2982;42.684;23.356;2022-07-23T10:54:38;7.45;;;5.40;;
5912;SDS011;2982;42.684;23.356;2022-07-23T10:57:04;7.38;;;4.85;;
5912;SDS011;2982;42.684;23.356;2022-07-23T10:59:30;7.05;;;4.90;;
5912;SDS011;2982;42.684;23.356;2022-07-23T11:02:19;11.80;;;4.85;;
5912;SDS011;2982;42.684;23.356;2022-07-23T11:04:47;8.43;;;4.72;;
5912;SDS011;2982;42.684;23.356;2022-07-23T11:07:15;10.90;;;5.70;;
5912;SDS011;2982;42.684;23.356;2022-07-23T11:09:41;9.25;;;5.07;;
5912;SDS011;2982;42.684;23.356;2022-07-23T11:14:57;8.52;;;3.80;;
5912;SDS011;2982;42.684;23.356;2022-07-23T11:17:31;12.00;;;4.47;;
5912;SDS011;2982;42.684;23.356;2022-07-23T11:25:05;10.07;;;4.70;;
5912;SDS011;2982;42.684;23.356;2022-07-23T11:27:41;14.55;;;4.60;;
5912;SDS011;2982;42.684;23.356;2022-07-23T11:30:09;7.07;;;4.28;;
5912;SDS011;2982;42.684;23.356;2022-07-23T11:33:15;11.73;;;4.50;;
5912;SDS011;2982;42.684;23.356;2022-07-23T11:35:43;10.35;;;4.65;;
5912;SDS011;2982;42.684;23.356;2022-07-23T11:38:22;9.43;;;4.88;;
5912;SDS011;2982;42.684;23.356;2022-07-23T11:40:49;17.55;;;5.18;;
5912;SDS011;2982;42.684;23.356;2022-07-23T11:43:16;15.45;;;5.00;;
5912;SDS011;2982;42.684;23.356;2022-07-23T11:45:43;6.95;;;5.05;;
5912;SDS011;2982;42.684;23.356;2022-07-23T11:48:20;12.27;;;4.10;;
5912;SDS011;2982;42.684;23.356;2022-07-23T11:50:51;8.52;;;3.80;;
5912;SDS011;2982;42.684;23.356;2022-07-23T11:53:50;10.77;;;4.60;;
5912;SDS011;2982;42.684;23.356;2022-07-23T11:56:10;14.00;;;5.32;;
5912;SDS011;2982;42.684;23.356;2022-07-23T11:58:36;13.43;;;4.35;;
5912;SDS011;2982;42.684;23.356;2022-07-23T12:01:03;11.85;;;4.80;;
5912;SDS011;2982;42.684;23.356;2022-07-23T12:03:28;12.63;;;4.45;;
5912;SDS011;2982;42.684;23.356;2022-07-23T12:05:57;16.13;;;5.13;;
5912;SDS011;2982;42.684;23.356;2022-07-23T12:08:23;14.15;;;4.35;;
5912;SDS011;2982;42.684;23.356;2022-07-23T12:10:49;8.32;;;4.35;;
5912;SDS011;2982;42.684;23.356;2022-07-23T12:13:16;17.05;;;4.85;;
5912;SDS011;2982;42.684;23.356;2022-07-23T12:15:45;12.30;;;4.95;;
5912;SDS011;2982;42.684;23.356;2022-07-23T12:18:14;14.35;;;4.78;;
5912;SDS011;2982;42.684;23.356;2022-07-23T12:20:42;10.63;;;4.63;;
5912;SDS011;2982;42.684;23.356;2022-07-23T12:23:10;10.88;;;4.88;;
5912;SDS011;2982;42.684;23.356;2022-07-23T12:25:41;8.05;;;4.20;;
5912;SDS011;2982;42.684;23.356;2022-07-23T12:28:09;21.00;;;5.50;;
5912;SDS011;2982;42.684;23.356;2022-07-23T12:30:38;9.50;;;4.95;;
5912;SDS011;2982;42.684;23.356;2022-07-23T12:33:09;9.93;;;4.30;;
5912;SDS011;2982;42.684;23.356;2022-07-23T12:38:05;12.50;;;4.57;;
5912;SDS011;2982;42.684;23.356;2022-07-23T12:40:36;11.02;;;4.47;;
5912;SDS011;2982;42.684;23.356;2022-07-23T12:43:08;10.52;;;4.18;;
5912;SDS011;2982;42.684;23.356;2022-07-23T12:45:46;6.40;;;3.95;;
5912;SDS011;2982;42.684;23.356;2022-07-23T12:48:17;15.45;;;5.07;;
5912;SDS011;2982;42.684;23.356;2022-07-23T12:53:31;14.32;;;5.15;;
5912;SDS011;2982;42.684;23.356;2022-07-23T12:56:29;10.00;;;5.00;;
5912;SDS011;2982;42.684;23.356;2022-07-23T12:58:57;9.75;;;4.90;;
5912;SDS011;2982;42.684;23.356;2022-07-23T13:01:26;10.90;;;4.93;;
5912;SDS011;2982;42.684;23.356;2022-07-23T13:03:58;8.65;;;4.47;;
5912;SDS011;2982;42.684;23.356;2022-07-23T13:06:28;9.65;;;4.80;;
5912;SDS011;2982;42.684;23.356;2022-07-23T13:08:55;8.65;;;4.20;;
5912;SDS011;2982;42.684;23.356;2022-07-23T13:11:20;14.80;;;4.80;;
5912;SDS011;2982;42.684;23.356;2022-07-23T13:13:46;5.22;;;4.07;;
5912;SDS011;2982;42.684;23.356;2022-07-23T13:16:11;16.10;;;4.80;;
5912;SDS011;2982;42.684;23.356;2022-07-23T13:18:36;7.28;;;4.30;;
5912;SDS011;2982;42.684;23.356;2022-07-23T13:21:02;10.73;;;4.60;;
5912;SDS011;2982;42.684;23.356;2022-07-23T13:23:27;8.15;;;5.03;;
5912;SDS011;2982;42.684;23.356;2022-07-23T13:25:53;13.15;;;4.78;;
5912;SDS011;2982;42.684;23.356;2022-07-23T13:28:19;12.48;;;4.55;;
5912;SDS011;2982;42.684;23.356;2022-07-23T13:30:45;15.48;;;4.10;;
5912;SDS011;2982;42.684;23.356;2022-07-23T13:33:11;13.05;;;5.03;;
5912;SDS011;2982;42.684;23.356;2022-07-23T13:35:37;8.80;;;5.28;;
5912;SDS011;2982;42.684;23.356;2022-07-23T13:38:03;8.82;;;4.53;;
5912;SDS011;2982;42.684;23.356;2022-07-23T13:40:29;10.35;;;4.20;;
5912;SDS011;2982;42.684;23.356;2022-07-23T13:42:55;10.88;;;4.80;;
5912;SDS011;2982;42.684;23.356;2022-07-23T13:45:21;6.80;;;4.72;;
5912;SDS011;2982;42.684;23.356;2022-07-23T13:47:46;18.05;;;5.20;;
5912;SDS011;2982;42.684;23.356;2022-07-23T13:50:11;14.38;;;4.70;;
5912;SDS011;2982;42.684;23.356;2022-07-23T13:52:37;10.63;;;4.20;;
5912;SDS011;2982;42.684;23.356;2022-07-23T13:55:03;10.07;;;4.50;;
5912;SDS011;2982;42.684;23.356;2022-07-23T13:57:30;9.43;;;5.10;;
5912;SDS011;2982;42.684;23.356;2022-07-23T13:59:56;12.82;;;4.65;;
5912;SDS011;2982;42.684;23.356;2022-07-23T14:02:21;8.80;;;4.57;;
5912;SDS011;2982;42.684;23.356;2022-07-23T14:04:47;14.63;;;5.10;;
5912;SDS011;2982;42.684;23.356;2022-07-23T14:07:12;8.15;;;3.97;;
5912;SDS011;2982;42.684;23.356;2022-07-23T14:09:38;14.32;;;5.15;;
5912;SDS011;2982;42.684;23.356;2022-07-23T14:12:03;8.95;;;3.85;;
5912;SDS011;2982;42.684;23.356;2022-07-23T14:14:29;10.05;;;4.78;;
5912;SDS011;2982;42.684;23.356;2022-07-23T14:16:55;9.02;;;4.57;;
5912;SDS011;2982;42.684;23.356;2022-07-23T14:19:20;14.60;;;4.65;;
5912;SDS011;2982;42.684;23.356;2022-07-23T14:21:46;13.65;;;4.20;;
5912;SDS011;2982;42.684;23.356;2022-07-23T14:24:11;8.75;;;3.67;;
5912;SDS011;2982;42.684;23.356;2022-07-23T14:26:37;8.10;;;4.68;;
5912;SDS011;2982;42.684;23.356;2022-07-23T14:29:02;9.57;;;4.00;;
5912;SDS011;2982;42.684;23.356;2022-07-23T14:31:27;11.13;;;4.72;;
5912;SDS011;2982;42.684;23.356;2022-07-23T14:33:52;16.33;;;4.97;;
5912;SDS011;2982;42.684;23.356;2022-07-23T14:36:18;6.13;;;3.88;;
5912;SDS011;2982;42.684;23.356;2022-07-23T14:38:43;7.25;;;4.57;;
5912;SDS011;2982;42.684;23.356;2022-07-23T14:41:09;9.27;;;4.00;;
5912;SDS011;2982;42.684;23.356;2022-07-23T14:43:34;12.07;;;4.68;;
5912;SDS011;2982;42.684;23.356;2022-07-23T14:45:59;14.63;;;4.30;;
5912;SDS011;2982;42.684;23.356;2022-07-23T14:48:25;15.52;;;5.45;;
5912;SDS011;2982;42.684;23.356;2022-07-23T14:50:50;10.15;;;3.95;;
5912;SDS011;2982;42.684;23.356;2022-07-23T14:53:16;9.18;;;3.65;;
5912;SDS011;2982;42.684;23.356;2022-07-23T14:55:41;9.98;;;3.97;;
5912;SDS011;2982;42.684;23.356;2022-07-23T14:58:06;10.57;;;4.20;;
5912;SDS011;2982;42.684;23.356;2022-07-23T15:00:32;9.40;;;4.20;;
5912;SDS011;2982;42.684;23.356;2022-07-23T15:02:57;8.77;;;4.22;;
5912;SDS011;2982;42.684;23.356;2022-07-23T15:05:22;8.50;;;4.57;;
5912;SDS011;2982;42.684;23.356;2022-07-23T15:07:48;11.00;;;4.63;;
5912;SDS011;2982;42.684;23.356;2022-07-23T15:10:14;7.97;;;4.60;;
5912;SDS011;2982;42.684;23.356;2022-07-23T15:12:39;4.93;;;4.07;;
5912;SDS011;2982;42.684;23.356;2022-07-23T15:15:05;12.10;;;5.30;;
5912;SDS011;2982;42.684;23.356;2022-07-23T15:17:31;5.80;;;3.60;;
5912;SDS011;2982;42.684;23.356;2022-07-23T15:19:57;5.80;;;5.05;;
5912;SDS011;2982;42.684;23.356;2022-07-23T15:22:22;7.40;;;4.40;;